Flight Track Log - Related Links

Times and Time Zones

All times are in EDT time to prevent confusion due to time zone crossing. See the SKW5500 flight status page for this flight to view local times or setup timezone preferences in your user account.

Time Position Orientation Groundspeed Altitude Reporting Facility
EDT Latitude Longitude Course Direction KTS MPH feet Rate Location/Type
Thu 05:41:00 PM 39.7707 -105.1491 259° West  Level FlightAware Approximate
Thu 05:42:00 PM 39.7520 -105.2703 259° West  Level FlightAware Approximate
Thu 05:43:00 PM 39.7376 -105.3914 255° West  Level FlightAware Approximate
Thu 05:44:00 PM 39.7121 -105.5104 254° West  Level FlightAware Approximate
Thu 05:45:00 PM 39.6903 -105.6291 247° West  Level FlightAware Approximate
Thu 05:46:00 PM 39.6833 -105.7507 270° West  Level FlightAware Approximate
Thu 05:47:00 PM 39.6667 -105.8635 270° West  Level FlightAware Approximate
Thu 05:48:00 PM 39.6479 -105.9833 261° West  Level FlightAware Approximate
Thu 05:49:00 PM 39.6329 -106.1051 264° West  Level FlightAware Approximate
Thu 05:50:00 PM 39.6227 -106.2277 264° West  Level FlightAware Approximate
Thu 05:51:00 PM 39.6063 -106.3478 247° West  Level FlightAware Approximate
Thu 05:52:00 PM 39.5687 -106.4611 247° West  Level FlightAware Approximate
Thu 05:53:00 PM 39.5310 -106.5741 247° West  Level FlightAware Approximate
Thu 05:54:00 PM 39.4932 -106.6871 247° West  Level FlightAware Approximate
Thu 05:55:00 PM 39.4556 -106.8001 247° West  Level FlightAware Approximate
Thu 05:56:00 PM 39.4072 -106.8811 176° South  Level FlightAware Approximate
Thu 05:57:00 PM 39.3124 -106.8732 176° South  Level FlightAware Approximate
Thu 05:58:00 PM 39.2176 -106.8667 180° South  Level FlightAware Approximate
Thu 05:59:00 PM 39.2167 -106.8667 180° South  Level FlightAware Approximate
Thu 06:00:00 PM 39.2219 -106.8682 180° South  Level Estimated
Thu 06:01:00 PM 39.2167 -106.8667 180° South  Level FlightAware Approximate
Thu 06:02:00 PM 39.2219 -106.8682 180° South  Level Estimated
Thu 06:03:00 PM 39.2167 -106.8667 180° South  Level FlightAware Approximate
Thu 06:04:00 PM 39.2219 -106.8682 180° South  Level Estimated

Login

Don't have an account? Register now (free) for customized features, flight alerts, and more!